sensor_id;sensor_type;location;lat;lon;timestamp;temperature;humidity
75442;DHT22;64019;48.312;14.226;2022-12-18T00:01:32;-2.00;99.90
75442;DHT22;64019;48.312;14.226;2022-12-18T00:04:00;-1.90;99.90
75442;DHT22;64019;48.312;14.226;2022-12-18T00:06:28;-1.90;99.90
75442;DHT22;64019;48.312;14.226;2022-12-18T00:08:55;-1.90;99.90
75442;DHT22;64019;48.312;14.226;2022-12-18T00:11:24;-1.80;99.90
75442;DHT22;64019;48.312;14.226;2022-12-18T00:13:50;-1.80;99.90
75442;DHT22;64019;48.312;14.226;2022-12-18T00:16:18;-1.80;99.90
75442;DHT22;64019;48.312;14.226;2022-12-18T00:18:48;-1.90;99.90
75442;DHT22;64019;48.312;14.226;2022-12-18T00:21:15;-2.00;99.90
75442;DHT22;64019;48.312;14.226;2022-12-18T00:23:42;-2.10;99.90
75442;DHT22;64019;48.312;14.226;2022-12-18T00:26:12;-2.10;99.90
75442;DHT22;64019;48.312;14.226;2022-12-18T00:28:40;-2.10;99.90
75442;DHT22;64019;48.312;14.226;2022-12-18T00:31:09;-2.00;99.90
75442;DHT22;64019;48.312;14.226;2022-12-18T00:33:36;-2.00;99.90
75442;DHT22;64019;48.312;14.226;2022-12-18T00:36:09;-2.10;99.90
75442;DHT22;64019;48.312;14.226;2022-12-18T00:38:35;-2.20;99.90
75442;DHT22;64019;48.312;14.226;2022-12-18T00:41:01;-2.30;99.90
75442;DHT22;64019;48.312;14.226;2022-12-18T00:43:27;-2.40;99.90
75442;DHT22;64019;48.312;14.226;2022-12-18T00:45:53;-2.40;99.90
75442;DHT22;64019;48.312;14.226;2022-12-18T00:48:19;-2.50;99.90
75442;DHT22;64019;48.312;14.226;2022-12-18T00:50:45;-2.50;99.90
75442;DHT22;64019;48.312;14.226;2022-12-18T00:53:11;-2.60;99.90
75442;DHT22;64019;48.312;14.226;2022-12-18T00:55:39;-2.60;99.90
75442;DHT22;64019;48.312;14.226;2022-12-18T00:58:05;-2.60;99.90
75442;DHT22;64019;48.312;14.226;2022-12-18T01:00:31;-2.50;99.90
75442;DHT22;64019;48.312;14.226;2022-12-18T01:02:57;-2.50;99.90
75442;DHT22;64019;48.312;14.226;2022-12-18T01:05:22;-2.50;99.90
75442;DHT22;64019;48.312;14.226;2022-12-18T01:07:48;-2.60;99.90
75442;DHT22;64019;48.312;14.226;2022-12-18T01:10:14;-2.80;99.90
75442;DHT22;64019;48.312;14.226;2022-12-18T01:12:40;-2.80;99.90
75442;DHT22;64019;48.312;14.226;2022-12-18T01:15:07;-2.80;99.90
75442;DHT22;64019;48.312;14.226;2022-12-18T01:17:33;-2.70;99.90
75442;DHT22;64019;48.312;14.226;2022-12-18T01:19:59;-2.80;99.90
75442;DHT22;64019;48.312;14.226;2022-12-18T01:22:24;-2.70;99.90
75442;DHT22;64019;48.312;14.226;2022-12-18T01:24:50;-2.70;99.90
75442;DHT22;64019;48.312;14.226;2022-12-18T01:27:15;-2.80;99.90
75442;DHT22;64019;48.312;14.226;2022-12-18T01:29:41;-2.80;99.90
75442;DHT22;64019;48.312;14.226;2022-12-18T01:32:08;-2.90;99.90
75442;DHT22;64019;48.312;14.226;2022-12-18T01:34:36;-3.00;99.90
75442;DHT22;64019;48.312;14.226;2022-12-18T01:37:03;-3.10;99.90
75442;DHT22;64019;48.312;14.226;2022-12-18T01:39:28;-3.30;99.90
75442;DHT22;64019;48.312;14.226;2022-12-18T01:41:54;-3.40;99.90
75442;DHT22;64019;48.312;14.226;2022-12-18T01:44:55;-3.50;99.90
75442;DHT22;64019;48.312;14.226;2022-12-18T01:49:57;-3.50;99.90
75442;DHT22;64019;48.312;14.226;2022-12-18T01:52:26;-3.40;99.90
75442;DHT22;64019;48.312;14.226;2022-12-18T01:54:53;-3.30;99.90
75442;DHT22;64019;48.312;14.226;2022-12-18T01:57:20;-3.30;99.90
75442;DHT22;64019;48.312;14.226;2022-12-18T01:59:50;-3.40;99.90
75442;DHT22;64019;48.312;14.226;2022-12-18T02:02:18;-3.30;99.90
75442;DHT22;64019;48.312;14.226;2022-12-18T02:04:44;-3.20;99.90
75442;DHT22;64019;48.312;14.226;2022-12-18T02:07:37;-3.20;99.90
75442;DHT22;64019;48.312;14.226;2022-12-18T02:10:17;-3.10;99.90
75442;DHT22;64019;48.312;14.226;2022-12-18T02:12:49;-3.10;99.90
75442;DHT22;64019;48.312;14.226;2022-12-18T02:15:36;-3.10;99.90
75442;DHT22;64019;48.312;14.226;2022-12-18T02:18:50;-3.10;99.90
75442;DHT22;64019;48.312;14.226;2022-12-18T02:23:56;-3.00;99.90
75442;DHT22;64019;48.312;14.226;2022-12-18T02:29:05;-3.10;99.90
75442;DHT22;64019;48.312;14.226;2022-12-18T02:31:39;-3.10;99.90
75442;DHT22;64019;48.312;14.226;2022-12-18T02:34:06;-3.00;99.90
75442;DHT22;64019;48.312;14.226;2022-12-18T02:36:35;-3.10;99.90
75442;DHT22;64019;48.312;14.226;2022-12-18T02:39:02;-3.10;99.90
75442;DHT22;64019;48.312;14.226;2022-12-18T02:41:30;-3.10;99.90
75442;DHT22;64019;48.312;14.226;2022-12-18T02:43:59;-3.10;99.90
75442;DHT22;64019;48.312;14.226;2022-12-18T02:46:32;-3.10;99.90
75442;DHT22;64019;48.312;14.226;2022-12-18T02:52:05;-3.00;99.90
75442;DHT22;64019;48.312;14.226;2022-12-18T02:54:49;-3.10;99.90
75442;DHT22;64019;48.312;14.226;2022-12-18T03:00:02;-3.30;99.90
75442;DHT22;64019;48.312;14.226;2022-12-18T03:02:51;-3.30;99.90
75442;DHT22;64019;48.312;14.226;2022-12-18T03:05:22;-3.30;99.90
75442;DHT22;64019;48.312;14.226;2022-12-18T03:07:57;-3.30;99.90
75442;DHT22;64019;48.312;14.226;2022-12-18T03:10:30;-3.30;99.90
75442;DHT22;64019;48.312;14.226;2022-12-18T03:13:09;-3.40;99.90
75442;DHT22;64019;48.312;14.226;2022-12-18T03:15:49;-3.40;99.90
75442;DHT22;64019;48.312;14.226;2022-12-18T03:18:25;-3.50;99.90
75442;DHT22;64019;48.312;14.226;2022-12-18T03:20:55;-3.50;99.90
75442;DHT22;64019;48.312;14.226;2022-12-18T03:23:29;-3.60;99.90
75442;DHT22;64019;48.312;14.226;2022-12-18T03:26:02;-3.70;99.90
75442;DHT22;64019;48.312;14.226;2022-12-18T03:28:33;-3.80;99.90
75442;DHT22;64019;48.312;14.226;2022-12-18T03:31:00;-3.90;99.90
75442;DHT22;64019;48.312;14.226;2022-12-18T03:33:37;-4.00;99.90
75442;DHT22;64019;48.312;14.226;2022-12-18T03:36:04;-4.00;99.90
75442;DHT22;64019;48.312;14.226;2022-12-18T03:38:29;-4.00;99.90
75442;DHT22;64019;48.312;14.226;2022-12-18T03:44:08;-4.30;99.90
75442;DHT22;64019;48.312;14.226;2022-12-18T03:52:02;-4.30;99.90
75442;DHT22;64019;48.312;14.226;2022-12-18T03:54:29;-4.30;99.90
75442;DHT22;64019;48.312;14.226;2022-12-18T03:57:02;-4.30;99.90
75442;DHT22;64019;48.312;14.226;2022-12-18T03:59:30;-4.20;99.90
75442;DHT22;64019;48.312;14.226;2022-12-18T04:01:58;-4.10;99.90
75442;DHT22;64019;48.312;14.226;2022-12-18T04:04:27;-4.20;99.90
75442;DHT22;64019;48.312;14.226;2022-12-18T04:06:54;-4.10;99.90
75442;DHT22;64019;48.312;14.226;2022-12-18T04:09:20;-4.10;99.90
75442;DHT22;64019;48.312;14.226;2022-12-18T04:11:47;-4.00;99.90
75442;DHT22;64019;48.312;14.226;2022-12-18T04:14:13;-4.10;99.90
75442;DHT22;64019;48.312;14.226;2022-12-18T04:16:39;-4.10;99.90
75442;DHT22;64019;48.312;14.226;2022-12-18T04:19:05;-4.00;99.90
75442;DHT22;64019;48.312;14.226;2022-12-18T04:21:31;-4.00;99.90
75442;DHT22;64019;48.312;14.226;2022-12-18T04:23:56;-3.90;99.90
75442;DHT22;64019;48.312;14.226;2022-12-18T04:26:22;-3.90;99.90
75442;DHT22;64019;48.312;14.226;2022-12-18T04:28:48;-3.80;99.90
75442;DHT22;64019;48.312;14.226;2022-12-18T04:31:13;-3.80;99.90
75442;DHT22;64019;48.312;14.226;2022-12-18T04:33:39;-3.80;99.90
75442;DHT22;64019;48.312;14.226;2022-12-18T04:36:05;-3.80;99.90
75442;DHT22;64019;48.312;14.226;2022-12-18T04:38:30;-4.00;99.90
75442;DHT22;64019;48.312;14.226;2022-12-18T04:40:56;-4.10;99.90
75442;DHT22;64019;48.312;14.226;2022-12-18T04:43:22;-4.10;99.90
75442;DHT22;64019;48.312;14.226;2022-12-18T04:45:47;-4.10;99.90
75442;DHT22;64019;48.312;14.226;2022-12-18T04:48:13;-4.20;99.90
75442;DHT22;64019;48.312;14.226;2022-12-18T04:50:39;-4.30;99.90
75442;DHT22;64019;48.312;14.226;2022-12-18T04:53:04;-4.50;99.90
75442;DHT22;64019;48.312;14.226;2022-12-18T04:55:30;-4.50;99.90
75442;DHT22;64019;48.312;14.226;2022-12-18T04:57:55;-4.60;99.90
75442;DHT22;64019;48.312;14.226;2022-12-18T05:00:21;-4.60;99.90
75442;DHT22;64019;48.312;14.226;2022-12-18T05:02:47;-4.60;99.90
75442;DHT22;64019;48.312;14.226;2022-12-18T05:05:14;-4.60;99.90
75442;DHT22;64019;48.312;14.226;2022-12-18T05:07:39;-4.70;99.90
75442;DHT22;64019;48.312;14.226;2022-12-18T05:10:06;-5.00;99.90
75442;DHT22;64019;48.312;14.226;2022-12-18T05:12:32;-5.10;99.90
75442;DHT22;64019;48.312;14.226;2022-12-18T05:14:58;-5.20;99.90
75442;DHT22;64019;48.312;14.226;2022-12-18T05:17:23;-5.30;99.90
75442;DHT22;64019;48.312;14.226;2022-12-18T05:19:49;-5.40;99.90
75442;DHT22;64019;48.312;14.226;2022-12-18T05:22:15;-5.50;99.90
75442;DHT22;64019;48.312;14.226;2022-12-18T05:24:40;-5.50;99.90
75442;DHT22;64019;48.312;14.226;2022-12-18T05:27:06;-5.60;99.90
75442;DHT22;64019;48.312;14.226;2022-12-18T05:29:31;-5.70;99.90
75442;DHT22;64019;48.312;14.226;2022-12-18T05:31:57;-5.70;99.90
75442;DHT22;64019;48.312;14.226;2022-12-18T05:34:23;-5.80;99.90
75442;DHT22;64019;48.312;14.226;2022-12-18T05:36:48;-6.00;99.90
75442;DHT22;64019;48.312;14.226;2022-12-18T05:39:14;-6.10;99.90
75442;DHT22;64019;48.312;14.226;2022-12-18T05:41:40;-6.30;99.90
75442;DHT22;64019;48.312;14.226;2022-12-18T05:44:05;-6.40;99.90
75442;DHT22;64019;48.312;14.226;2022-12-18T05:46:31;-6.40;99.90
75442;DHT22;64019;48.312;14.226;2022-12-18T05:48:59;-6.40;99.90
75442;DHT22;64019;48.312;14.226;2022-12-18T05:51:25;-6.50;99.90
75442;DHT22;64019;48.312;14.226;2022-12-18T05:53:51;-6.50;99.90
75442;DHT22;64019;48.312;14.226;2022-12-18T05:56:19;-6.50;99.90
75442;DHT22;64019;48.312;14.226;2022-12-18T05:58:46;-6.40;99.90
75442;DHT22;64019;48.312;14.226;2022-12-18T06:01:17;-6.40;99.90
75442;DHT22;64019;48.312;14.226;2022-12-18T06:03:43;-6.40;99.90
75442;DHT22;64019;48.312;14.226;2022-12-18T06:06:14;-6.50;99.90
75442;DHT22;64019;48.312;14.226;2022-12-18T06:08:40;-6.50;99.90
75442;DHT22;64019;48.312;14.226;2022-12-18T06:11:05;-6.50;99.90
75442;DHT22;64019;48.312;14.226;2022-12-18T06:13:31;-6.60;99.90
75442;DHT22;64019;48.312;14.226;2022-12-18T06:15:57;-6.60;99.90
75442;DHT22;64019;48.312;14.226;2022-12-18T06:18:22;-6.70;99.90
75442;DHT22;64019;48.312;14.226;2022-12-18T06:20:58;-6.70;99.90
75442;DHT22;64019;48.312;14.226;2022-12-18T06:23:24;-6.60;99.90
75442;DHT22;64019;48.312;14.226;2022-12-18T06:25:50;-6.70;99.90
75442;DHT22;64019;48.312;14.226;2022-12-18T06:28:15;-6.80;99.90
75442;DHT22;64019;48.312;14.226;2022-12-18T06:30:45;-6.80;99.90
75442;DHT22;64019;48.312;14.226;2022-12-18T06:33:11;-6.90;99.90
75442;DHT22;64019;48.312;14.226;2022-12-18T06:35:37;-6.90;99.90
75442;DHT22;64019;48.312;14.226;2022-12-18T06:38:03;-6.90;99.90
75442;DHT22;64019;48.312;14.226;2022-12-18T06:40:28;-6.90;99.90
75442;DHT22;64019;48.312;14.226;2022-12-18T06:42:54;-6.90;99.90
75442;DHT22;64019;48.312;14.226;2022-12-18T06:45:20;-6.90;99.90
75442;DHT22;64019;48.312;14.226;2022-12-18T06:47:45;-6.90;99.90
75442;DHT22;64019;48.312;14.226;2022-12-18T06:50:12;-6.90;99.90
75442;DHT22;64019;48.312;14.226;2022-12-18T06:52:38;-6.90;99.90
75442;DHT22;64019;48.312;14.226;2022-12-18T06:55:06;-6.80;99.90
75442;DHT22;64019;48.312;14.226;2022-12-18T06:57:33;-6.80;99.90
75442;DHT22;64019;48.312;14.226;2022-12-18T07:00:00;-6.60;99.90
75442;DHT22;64019;48.312;14.226;2022-12-18T07:02:25;-6.60;99.90
75442;DHT22;64019;48.312;14.226;2022-12-18T07:04:51;-6.50;99.90
75442;DHT22;64019;48.312;14.226;2022-12-18T07:07:17;-6.30;99.90
75442;DHT22;64019;48.312;14.226;2022-12-18T07:09:42;-6.20;99.90
75442;DHT22;64019;48.312;14.226;2022-12-18T07:12:08;-6.10;99.90
75442;DHT22;64019;48.312;14.226;2022-12-18T07:14:36;-6.00;99.90
75442;DHT22;64019;48.312;14.226;2022-12-18T07:17:02;-5.90;99.90
75442;DHT22;64019;48.312;14.226;2022-12-18T07:19:27;-5.70;99.90
75442;DHT22;64019;48.312;14.226;2022-12-18T07:21:53;-5.60;99.90
75442;DHT22;64019;48.312;14.226;2022-12-18T07:24:18;-5.50;99.90
75442;DHT22;64019;48.312;14.226;2022-12-18T07:26:47;-5.60;99.90
75442;DHT22;64019;48.312;14.226;2022-12-18T07:29:13;-5.50;99.90
75442;DHT22;64019;48.312;14.226;2022-12-18T07:31:39;-5.40;99.90
75442;DHT22;64019;48.312;14.226;2022-12-18T07:34:04;-5.40;99.90
75442;DHT22;64019;48.312;14.226;2022-12-18T07:36:30;-5.40;99.90
75442;DHT22;64019;48.312;14.226;2022-12-18T07:38:56;-5.40;99.90
75442;DHT22;64019;48.312;14.226;2022-12-18T07:41:22;-5.40;99.90
75442;DHT22;64019;48.312;14.226;2022-12-18T07:43:48;-5.40;99.90
75442;DHT22;64019;48.312;14.226;2022-12-18T07:46:14;-5.40;99.90
75442;DHT22;64019;48.312;14.226;2022-12-18T07:48:41;-5.40;99.90
75442;DHT22;64019;48.312;14.226;2022-12-18T07:51:07;-5.40;99.90
75442;DHT22;64019;48.312;14.226;2022-12-18T07:53:34;-5.30;99.90
75442;DHT22;64019;48.312;14.226;2022-12-18T07:56:05;-5.30;99.90
75442;DHT22;64019;48.312;14.226;2022-12-18T07:58:32;-5.20;99.90
75442;DHT22;64019;48.312;14.226;2022-12-18T08:01:09;-5.20;99.90
75442;DHT22;64019;48.312;14.226;2022-12-18T08:03:35;-5.30;99.90
75442;DHT22;64019;48.312;14.226;2022-12-18T08:06:02;-5.20;99.90
75442;DHT22;64019;48.312;14.226;2022-12-18T08:08:28;-5.20;99.90
75442;DHT22;64019;48.312;14.226;2022-12-18T08:10:54;-5.30;99.90
75442;DHT22;64019;48.312;14.226;2022-12-18T08:13:20;-5.30;99.90
75442;DHT22;64019;48.312;14.226;2022-12-18T08:15:45;-5.10;99.90
75442;DHT22;64019;48.312;14.226;2022-12-18T08:18:11;-5.10;99.90
75442;DHT22;64019;48.312;14.226;2022-12-18T08:20:37;-5.00;99.90
75442;DHT22;64019;48.312;14.226;2022-12-18T08:23:07;-5.10;99.90
75442;DHT22;64019;48.312;14.226;2022-12-18T08:25:33;-5.10;99.90
75442;DHT22;64019;48.312;14.226;2022-12-18T08:27:59;-5.00;99.90
75442;DHT22;64019;48.312;14.226;2022-12-18T08:30:25;-4.90;99.90
75442;DHT22;64019;48.312;14.226;2022-12-18T08:32:53;-4.80;99.90
75442;DHT22;64019;48.312;14.226;2022-12-18T08:35:19;-4.80;99.90
75442;DHT22;64019;48.312;14.226;2022-12-18T08:37:44;-4.80;99.90
75442;DHT22;64019;48.312;14.226;2022-12-18T08:40:10;-4.80;99.90
75442;DHT22;64019;48.312;14.226;2022-12-18T08:42:36;-4.90;99.90
75442;DHT22;64019;48.312;14.226;2022-12-18T08:45:20;-4.90;99.90
75442;DHT22;64019;48.312;14.226;2022-12-18T08:47:46;-4.90;99.90
75442;DHT22;64019;48.312;14.226;2022-12-18T08:50:11;-5.00;99.90
75442;DHT22;64019;48.312;14.226;2022-12-18T08:52:37;-5.00;99.90
75442;DHT22;64019;48.312;14.226;2022-12-18T08:55:03;-5.10;99.90
75442;DHT22;64019;48.312;14.226;2022-12-18T08:57:29;-5.10;99.90
75442;DHT22;64019;48.312;14.226;2022-12-18T08:59:55;-5.00;99.90
75442;DHT22;64019;48.312;14.226;2022-12-18T09:02:20;-4.90;99.90
75442;DHT22;64019;48.312;14.226;2022-12-18T09:04:49;-4.90;99.90
75442;DHT22;64019;48.312;14.226;2022-12-18T09:07:15;-4.90;99.90
75442;DHT22;64019;48.312;14.226;2022-12-18T09:09:40;-5.00;99.90
75442;DHT22;64019;48.312;14.226;2022-12-18T09:12:06;-4.90;99.90
75442;DHT22;64019;48.312;14.226;2022-12-18T09:14:31;-4.90;99.90
75442;DHT22;64019;48.312;14.226;2022-12-18T09:16:57;-4.90;99.90
75442;DHT22;64019;48.312;14.226;2022-12-18T09:19:23;-4.90;99.90
75442;DHT22;64019;48.312;14.226;2022-12-18T09:21:48;-4.80;99.90
75442;DHT22;64019;48.312;14.226;2022-12-18T09:24:15;-4.60;99.90
75442;DHT22;64019;48.312;14.226;2022-12-18T09:26:41;-4.50;99.90
75442;DHT22;64019;48.312;14.226;2022-12-18T09:29:07;-4.40;99.90
75442;DHT22;64019;48.312;14.226;2022-12-18T09:31:33;-4.30;99.90
75442;DHT22;64019;48.312;14.226;2022-12-18T09:33:59;-4.20;99.90
75442;DHT22;64019;48.312;14.226;2022-12-18T09:36:25;-4.20;99.90
75442;DHT22;64019;48.312;14.226;2022-12-18T09:38:50;-4.30;99.90
75442;DHT22;64019;48.312;14.226;2022-12-18T09:44:00;-4.20;99.90
75442;DHT22;64019;48.312;14.226;2022-12-18T09:46:34;-4.30;99.90
75442;DHT22;64019;48.312;14.226;2022-12-18T09:49:07;-4.30;99.90
75442;DHT22;64019;48.312;14.226;2022-12-18T09:51:40;-4.30;99.90
75442;DHT22;64019;48.312;14.226;2022-12-18T09:54:20;-4.30;99.90
75442;DHT22;64019;48.312;14.226;2022-12-18T09:56:47;-4.30;99.90
75442;DHT22;64019;48.312;14.226;2022-12-18T09:59:32;-4.30;99.90
75442;DHT22;64019;48.312;14.226;2022-12-18T10:01:59;-4.40;99.90
75442;DHT22;64019;48.312;14.226;2022-12-18T10:04:26;-4.40;99.90
75442;DHT22;64019;48.312;14.226;2022-12-18T10:07:24;-4.40;99.90
75442;DHT22;64019;48.312;14.226;2022-12-18T10:10:04;-4.40;99.90
75442;DHT22;64019;48.312;14.226;2022-12-18T10:12:56;-4.40;99.90
75442;DHT22;64019;48.312;14.226;2022-12-18T10:15:38;-4.50;99.90
75442;DHT22;64019;48.312;14.226;2022-12-18T10:20:49;-4.60;99.90
75442;DHT22;64019;48.312;14.226;2022-12-18T10:23:37;-4.50;99.90
75442;DHT22;64019;48.312;14.226;2022-12-18T10:26:08;-4.40;99.90
75442;DHT22;64019;48.312;14.226;2022-12-18T10:28:36;-4.40;99.90
75442;DHT22;64019;48.312;14.226;2022-12-18T10:31:16;-4.40;99.90
75442;DHT22;64019;48.312;14.226;2022-12-18T10:33:42;-4.40;99.90
75442;DHT22;64019;48.312;14.226;2022-12-18T10:36:08;-4.30;99.90
75442;DHT22;64019;48.312;14.226;2022-12-18T10:38:34;-4.20;99.90
75442;DHT22;64019;48.312;14.226;2022-12-18T10:43:45;-4.20;99.90
75442;DHT22;64019;48.312;14.226;2022-12-18T10:46:12;-4.20;99.90
75442;DHT22;64019;48.312;14.226;2022-12-18T10:51:33;-4.20;99.90
75442;DHT22;64019;48.312;14.226;2022-12-18T10:56:33;-4.20;99.90
75442;DHT22;64019;48.312;14.226;2022-12-18T10:59:03;-4.10;99.90
75442;DHT22;64019;48.312;14.226;2022-12-18T11:04:18;-4.10;99.90
75442;DHT22;64019;48.312;14.226;2022-12-18T11:07:07;-4.10;99.90
75442;DHT22;64019;48.312;14.226;2022-12-18T11:09:35;-4.10;99.90
75442;DHT22;64019;48.312;14.226;2022-12-18T11:12:04;-4.00;99.90
75442;DHT22;64019;48.312;14.226;2022-12-18T11:14:50;-4.00;99.90
75442;DHT22;64019;48.312;14.226;2022-12-18T11:17:33;-4.00;99.90
75442;DHT22;64019;48.312;14.226;2022-12-18T11:20:03;-3.90;99.90
75442;DHT22;64019;48.312;14.226;2022-12-18T11:22:31;-3.90;99.90
75442;DHT22;64019;48.312;14.226;2022-12-18T11:25:04;-3.70;99.90
75442;DHT22;64019;48.312;14.226;2022-12-18T11:27:31;-3.70;99.90
75442;DHT22;64019;48.312;14.226;2022-12-18T11:30:21;-3.60;99.90
75442;DHT22;64019;48.312;14.226;2022-12-18T11:33:10;-3.50;99.90
75442;DHT22;64019;48.312;14.226;2022-12-18T11:38:32;-3.40;99.90
75442;DHT22;64019;48.312;14.226;2022-12-18T11:41:04;-3.40;99.90
75442;DHT22;64019;48.312;14.226;2022-12-18T11:43:50;-3.40;99.90
75442;DHT22;64019;48.312;14.226;2022-12-18T11:46:29;-3.40;99.90
75442;DHT22;64019;48.312;14.226;2022-12-18T11:51:49;-3.40;99.90
75442;DHT22;64019;48.312;14.226;2022-12-18T11:54:14;-3.40;99.90
75442;DHT22;64019;48.312;14.226;2022-12-18T12:08:06;-3.40;99.90
75442;DHT22;64019;48.312;14.226;2022-12-18T12:16:10;-3.30;99.90
75442;DHT22;64019;48.312;14.226;2022-12-18T12:21:18;-3.30;99.90
75442;DHT22;64019;48.312;14.226;2022-12-18T12:39:47;-2.90;99.90
75442;DHT22;64019;48.312;14.226;2022-12-18T12:42:26;-2.80;99.90
75442;DHT22;64019;48.312;14.226;2022-12-18T12:45:25;-2.80;99.90
75442;DHT22;64019;48.312;14.226;2022-12-18T12:47:52;-2.70;99.90
75442;DHT22;64019;48.312;14.226;2022-12-18T12:50:20;-2.70;99.90
75442;DHT22;64019;48.312;14.226;2022-12-18T12:52:52;-2.80;99.90
75442;DHT22;64019;48.312;14.226;2022-12-18T12:55:22;-2.80;99.90
75442;DHT22;64019;48.312;14.226;2022-12-18T12:58:22;-2.90;99.90
75442;DHT22;64019;48.312;14.226;2022-12-18T13:04:14;-2.70;99.90
75442;DHT22;64019;48.312;14.226;2022-12-18T13:09:13;-2.80;99.90
75442;DHT22;64019;48.312;14.226;2022-12-18T13:14:36;-2.90;99.90
75442;DHT22;64019;48.312;14.226;2022-12-18T13:20:07;-2.80;99.90
75442;DHT22;64019;48.312;14.226;2022-12-18T13:22:40;-2.80;99.90
75442;DHT22;64019;48.312;14.226;2022-12-18T13:25:27;-2.90;99.90
75442;DHT22;64019;48.312;14.226;2022-12-18T13:28:09;-2.90;99.90
75442;DHT22;64019;48.312;14.226;2022-12-18T13:40:54;-2.80;99.90
75442;DHT22;64019;48.312;14.226;2022-12-18T13:45:50;-2.60;99.90
75442;DHT22;64019;48.312;14.226;2022-12-18T13:48:26;-2.50;99.90
75442;DHT22;64019;48.312;14.226;2022-12-18T13:51:01;-2.50;99.90
75442;DHT22;64019;48.312;14.226;2022-12-18T13:56:23;-2.40;99.90
75442;DHT22;64019;48.312;14.226;2022-12-18T14:01:54;-2.20;99.90
75442;DHT22;64019;48.312;14.226;2022-12-18T14:04:27;-2.10;99.90
75442;DHT22;64019;48.312;14.226;2022-12-18T14:07:06;-2.10;99.90
75442;DHT22;64019;48.312;14.226;2022-12-18T14:09:42;-2.10;99.90
75442;DHT22;64019;48.312;14.226;2022-12-18T14:12:17;-2.00;99.90
75442;DHT22;64019;48.312;14.226;2022-12-18T14:15:03;-2.00;99.90
75442;DHT22;64019;48.312;14.226;2022-12-18T14:17:31;-1.90;99.90
75442;DHT22;64019;48.312;14.226;2022-12-18T14:19:57;-1.90;99.90
75442;DHT22;64019;48.312;14.226;2022-12-18T14:22:26;-1.80;99.90
75442;DHT22;64019;48.312;14.226;2022-12-18T14:27:46;-1.90;99.90
75442;DHT22;64019;48.312;14.226;2022-12-18T14:30:58;-1.80;99.90
75442;DHT22;64019;48.312;14.226;2022-12-18T14:33:19;-1.80;99.90
75442;DHT22;64019;48.312;14.226;2022-12-18T14:36:01;-1.80;99.90
75442;DHT22;64019;48.312;14.226;2022-12-18T14:38:34;-1.80;99.90
75442;DHT22;64019;48.312;14.226;2022-12-18T14:41:02;-1.70;99.90
75442;DHT22;64019;48.312;14.226;2022-12-18T14:43:32;-1.80;99.90
75442;DHT22;64019;48.312;14.226;2022-12-18T14:45:58;-1.80;99.90
75442;DHT22;64019;48.312;14.226;2022-12-18T14:48:40;-1.80;99.90
75442;DHT22;64019;48.312;14.226;2022-12-18T14:51:18;-1.80;99.90
75442;DHT22;64019;48.312;14.226;2022-12-18T14:53:47;-1.80;99.90
75442;DHT22;64019;48.312;14.226;2022-12-18T14:56:17;-1.80;99.90
75442;DHT22;64019;48.312;14.226;2022-12-18T14:58:51;-1.80;99.90
75442;DHT22;64019;48.312;14.226;2022-12-18T15:01:27;-1.90;99.90
75442;DHT22;64019;48.312;14.226;2022-12-18T15:03:53;-1.80;99.90
75442;DHT22;64019;48.312;14.226;2022-12-18T15:06:29;-1.80;99.90
75442;DHT22;64019;48.312;14.226;2022-12-18T15:08:56;-1.80;99.90
75442;DHT22;64019;48.312;14.226;2022-12-18T15:11:27;-1.90;99.90
75442;DHT22;64019;48.312;14.226;2022-12-18T15:13:53;-1.90;99.90
75442;DHT22;64019;48.312;14.226;2022-12-18T15:16:19;-1.90;99.90
75442;DHT22;64019;48.312;14.226;2022-12-18T15:18:45;-1.90;99.90
75442;DHT22;64019;48.312;14.226;2022-12-18T15:21:18;-1.90;99.90
75442;DHT22;64019;48.312;14.226;2022-12-18T15:26:12;-2.00;99.90
75442;DHT22;64019;48.312;14.226;2022-12-18T15:28:55;-2.00;99.90
75442;DHT22;64019;48.312;14.226;2022-12-18T15:31:34;-1.90;99.90
75442;DHT22;64019;48.312;14.226;2022-12-18T15:34:13;-2.00;99.90
75442;DHT22;64019;48.312;14.226;2022-12-18T15:36:39;-2.10;99.90
75442;DHT22;64019;48.312;14.226;2022-12-18T15:39:04;-2.10;99.90
75442;DHT22;64019;48.312;14.226;2022-12-18T15:41:32;-2.10;99.90
75442;DHT22;64019;48.312;14.226;2022-12-18T15:43:59;-2.00;99.90
75442;DHT22;64019;48.312;14.226;2022-12-18T15:46:25;-2.00;99.90
75442;DHT22;64019;48.312;14.226;2022-12-18T15:48:56;-2.00;99.90
75442;DHT22;64019;48.312;14.226;2022-12-18T15:51:35;-2.00;99.90
75442;DHT22;64019;48.312;14.226;2022-12-18T15:54:03;-2.00;99.90
75442;DHT22;64019;48.312;14.226;2022-12-18T15:56:30;-2.10;99.90
75442;DHT22;64019;48.312;14.226;2022-12-18T15:59:17;-2.10;99.90
75442;DHT22;64019;48.312;14.226;2022-12-18T16:01:47;-2.10;99.90
75442;DHT22;64019;48.312;14.226;2022-12-18T16:04:14;-2.10;99.90
75442;DHT22;64019;48.312;14.226;2022-12-18T16:06:40;-2.10;99.90
75442;DHT22;64019;48.312;14.226;2022-12-18T16:09:06;-2.10;99.90
75442;DHT22;64019;48.312;14.226;2022-12-18T16:11:34;-2.10;99.90
75442;DHT22;64019;48.312;14.226;2022-12-18T16:16:38;-2.20;99.90
75442;DHT22;64019;48.312;14.226;2022-12-18T16:19:03;-2.20;99.90
75442;DHT22;64019;48.312;14.226;2022-12-18T16:21:29;-2.20;99.90
75442;DHT22;64019;48.312;14.226;2022-12-18T16:23:54;-2.20;99.90
75442;DHT22;64019;48.312;14.226;2022-12-18T16:26:20;-2.20;99.90
75442;DHT22;64019;48.312;14.226;2022-12-18T16:28:46;-2.20;99.90
75442;DHT22;64019;48.312;14.226;2022-12-18T16:31:11;-2.20;99.90
75442;DHT22;64019;48.312;14.226;2022-12-18T16:33:37;-2.20;99.90
75442;DHT22;64019;48.312;14.226;2022-12-18T16:36:03;-2.20;99.90
75442;DHT22;64019;48.312;14.226;2022-12-18T16:38:28;-2.20;99.90
75442;DHT22;64019;48.312;14.226;2022-12-18T16:40:54;-2.20;99.90
75442;DHT22;64019;48.312;14.226;2022-12-18T16:43:38;-2.30;99.90
75442;DHT22;64019;48.312;14.226;2022-12-18T16:46:04;-2.30;99.90
75442;DHT22;64019;48.312;14.226;2022-12-18T16:48:30;-2.30;99.90
75442;DHT22;64019;48.312;14.226;2022-12-18T16:51:01;-2.30;99.90
75442;DHT22;64019;48.312;14.226;2022-12-18T16:53:27;-2.30;99.90
75442;DHT22;64019;48.312;14.226;2022-12-18T16:55:56;-2.30;99.90
75442;DHT22;64019;48.312;14.226;2022-12-18T16:58:22;-2.30;99.90
75442;DHT22;64019;48.312;14.226;2022-12-18T17:00:47;-2.30;99.90
75442;DHT22;64019;48.312;14.226;2022-12-18T17:03:13;-2.40;99.90
75442;DHT22;64019;48.312;14.226;2022-12-18T17:05:39;-2.50;99.90
75442;DHT22;64019;48.312;14.226;2022-12-18T17:08:04;-2.40;99.90
75442;DHT22;64019;48.312;14.226;2022-12-18T17:10:30;-2.40;99.90
75442;DHT22;64019;48.312;14.226;2022-12-18T17:12:56;-2.30;99.90
75442;DHT22;64019;48.312;14.226;2022-12-18T17:15:22;-2.40;99.90
75442;DHT22;64019;48.312;14.226;2022-12-18T17:17:48;-2.40;99.90
75442;DHT22;64019;48.312;14.226;2022-12-18T17:20:13;-2.40;99.90
75442;DHT22;64019;48.312;14.226;2022-12-18T17:22:39;-2.40;99.90
75442;DHT22;64019;48.312;14.226;2022-12-18T17:25:05;-2.40;99.90
75442;DHT22;64019;48.312;14.226;2022-12-18T17:27:30;-2.40;99.90